Time;durP1;ratioP1;P1;durP2;ratioP2;P2;SDS_P1;SDS_P2;PMS_P1;PMS_P2;Temp;Humidity;BMP_temperature;BMP_pressure;BME280_temperature;BME280_humidity;BME280_pressure;Samples;Min_cycle;Max_cycle;Signal;HPM_P1;HPM_P2
2023/01/20 00:00:06;;;;;;;21.73;5.37;;;;;;;10.69;81.22;99886.84;124747;1102;104179;-77
2023/01/20 00:03:04;;;;;;;22.90;5.90;;;;;;;10.71;81.68;99882.50;124856;1102;101855;-77
2023/01/20 00:05:35;;;;;;;19.80;4.97;;;;;;;10.69;81.54;99872.81;124674;1102;102064;-77
2023/01/20 00:08:07;;;;;;;19.10;5.77;;;;;;;10.68;81.07;99876.30;124646;1102;102000;-77
2023/01/20 00:10:38;;;;;;;19.87;5.87;;;;;;;10.66;81.31;99876.27;124581;1102;104347;-77
2023/01/20 00:13:10;;;;;;;21.30;6.07;;;;;;;10.62;81.30;99877.02;124525;1102;104252;-77
2023/01/20 00:15:41;;;;;;;19.90;5.80;;;;;;;10.59;81.36;99880.44;124772;1102;102452;-78
2023/01/20 00:18:12;;;;;;;17.63;5.70;;;;;;;10.58;81.70;99880.41;124723;1102;102402;-77
2023/01/20 00:20:44;;;;;;;16.03;4.77;;;;;;;10.55;81.19;99869.83;124711;1101;104178;-77
2023/01/20 00:23:15;;;;;;;20.57;5.47;;;;;;;10.53;81.57;99868.91;124576;1102;104184;-77
2023/01/20 00:25:46;;;;;;;19.40;5.80;;;;;;;10.51;81.36;99868.00;124690;1102;104261;-77
2023/01/20 00:28:18;;;;;;;18.53;5.23;;;;;;;10.49;81.47;99865.33;124688;1102;101913;-77
2023/01/20 00:30:49;;;;;;;16.30;5.85;;;;;;;10.48;81.57;99866.17;124594;1102;102034;-77
2023/01/20 00:33:21;;;;;;;21.50;6.10;;;;;;;10.48;81.68;99870.55;124633;1102;101986;-77
2023/01/20 00:35:52;;;;;;;16.77;5.53;;;;;;;10.45;81.57;99862.59;124664;1102;102236;-77
2023/01/20 00:38:23;;;;;;;18.67;5.63;;;;;;;10.40;81.74;99868.59;124547;1102;101925;-77
2023/01/20 00:40:58;;;;;;;18.27;5.47;;;;;;;10.37;81.40;99872.88;124630;1103;104258;-77
2023/01/20 00:43:29;;;;;;;21.00;6.10;;;;;;;10.35;81.49;99870.22;124647;1102;102083;-77
2023/01/20 00:46:01;;;;;;;21.93;5.87;;;;;;;10.34;81.66;99871.05;124638;1102;101936;-77
2023/01/20 00:48:32;;;;;;;21.53;6.30;;;;;;;10.33;81.76;99866.67;124639;1102;104172;-77
2023/01/20 00:51:04;;;;;;;18.67;6.00;;;;;;;10.31;81.71;99864.81;124549;1102;104077;-78
2023/01/20 00:53:36;;;;;;;23.93;5.90;;;;;;;10.28;81.59;99862.98;124634;1101;104185;-78
2023/01/20 00:56:08;;;;;;;22.70;6.00;;;;;;;10.29;81.56;99870.02;124551;1102;104198;-78
2023/01/20 00:58:39;;;;;;;17.50;5.23;;;;;;;10.26;81.75;99880.42;124573;1102;104242;-78
2023/01/20 01:01:10;;;;;;;21.20;5.43;;;;;;;10.24;81.67;99877.77;124477;1102;101954;-77
2023/01/20 01:03:41;;;;;;;20.63;5.90;;;;;;;10.22;81.86;99870.69;124657;1102;104169;-78
2023/01/20 01:06:15;;;;;;;18.47;5.20;;;;;;;10.18;81.65;99866.23;124548;1102;104291;-77
2023/01/20 01:08:46;;;;;;;14.50;5.10;;;;;;;10.17;81.42;99867.94;124734;1102;101839;-77
2023/01/20 01:11:17;;;;;;;21.27;5.37;;;;;;;10.14;81.55;99864.36;124596;1102;104320;-77
2023/01/20 01:13:49;;;;;;;16.70;5.03;;;;;;;10.11;81.54;99862.53;124572;1102;104230;-77
2023/01/20 01:16:20;;;;;;;19.17;5.17;;;;;;;10.10;81.59;99860.78;124564;1102;104216;-77
2023/01/20 01:18:55;;;;;;;18.13;5.40;;;;;;;10.08;82.04;99862.45;124677;1102;104229;-78
2023/01/20 01:21:26;;;;;;;16.55;5.10;;;;;;;10.04;81.48;99865.84;124527;1102;104211;-79
2023/01/20 01:23:57;;;;;;;21.00;5.17;;;;;;;10.01;81.66;99868.39;124598;1104;102488;-78
2023/01/20 01:26:28;;;;;;;18.73;5.70;;;;;;;9.96;82.03;99876.12;124608;1102;102114;-77
2023/01/20 01:29:00;;;;;;;20.47;5.57;;;;;;;9.95;81.55;99876.08;124552;1105;104347;-77
2023/01/20 01:31:31;;;;;;;17.50;5.17;;;;;;;9.96;81.79;99870.00;124534;1102;104236;-78
2023/01/20 01:34:02;;;;;;;17.47;5.23;;;;;;;9.93;81.61;99872.53;124566;1102;104188;-77
2023/01/20 01:36:34;;;;;;;18.80;5.33;;;;;;;9.93;81.49;99877.78;124528;1102;101989;-77
2023/01/20 01:39:05;;;;;;;18.50;5.37;;;;;;;9.89;81.72;99877.69;124580;1102;102505;-78
2023/01/20 01:41:36;;;;;;;18.67;5.30;;;;;;;9.88;81.48;99877.64;124545;1102;102332;-78
2023/01/20 01:44:11;;;;;;;17.23;4.83;;;;;;;9.83;81.48;99881.84;124546;1102;101984;-77
2023/01/20 01:46:43;;;;;;;16.90;5.13;;;;;;;9.81;81.76;99888.78;124593;1103;104176;-77
2023/01/20 01:49:20;;;;;;;20.87;5.43;;;;;;;9.78;81.61;99886.07;124642;1102;102087;-78
2023/01/20 01:51:58;;;;;;;17.53;4.77;;;;;;;9.75;81.68;99881.63;124687;1101;104194;-78
2023/01/20 01:54:34;;;;;;;19.30;5.00;;;;;;;9.75;81.87;99879.00;124728;1102;101823;-77
2023/01/20 01:57:07;;;;;;;18.07;4.80;;;;;;;9.76;82.15;99879.91;124540;1102;104354;-77
2023/01/20 01:59:39;;;;;;;18.00;5.17;;;;;;;9.75;82.24;99875.50;124593;1102;104246;-77
2023/01/20 02:02:10;;;;;;;19.10;5.00;;;;;;;9.78;82.41;99875.59;124618;1102;102319;-78
2023/01/20 02:04:42;;;;;;;23.47;4.80;;;;;;;9.79;82.06;99861.66;124619;1102;102740;-77
2023/01/20 02:07:17;;;;;;;17.85;5.40;;;;;;;9.80;81.88;99859.09;124704;1102;101961;-77
2023/01/20 02:09:52;;;;;;;16.83;4.80;;;;;;;9.76;82.16;99853.71;124750;1101;104287;-77
2023/01/20 02:12:24;;;;;;;18.00;4.83;;;;;;;9.71;81.71;99862.31;124785;1101;102245;-77
2023/01/20 02:14:59;;;;;;;16.30;4.60;;;;;;;9.70;81.83;99867.52;124492;1102;102126;-77
2023/01/20 02:17:34;;;;;;;22.70;5.03;;;;;;;9.69;82.28;99861.39;124580;1102;104207;-77
2023/01/20 02:20:30;;;;;;;18.60;4.43;;;;;;;9.67;81.89;99865.67;124731;1102;101894;-78
2023/01/20 02:23:07;;;;;;;16.07;4.37;;;;;;;9.69;82.08;99866.63;124741;1102;104239;-77
2023/01/20 02:26:02;;;;;;;16.70;4.10;;;;;;;9.73;81.94;99877.20;124701;1102;104201;-77
2023/01/20 02:28:53;;;;;;;16.60;4.60;;;;;;;9.71;81.99;99883.27;124630;1102;119043;-77
2023/01/20 02:31:50;;;;;;;16.37;4.33;;;;;;;9.70;82.12;99885.84;124590;1102;104108;-77
2023/01/20 02:34:29;;;;;;;17.53;5.60;;;;;;;9.67;81.93;99889.25;124652;1102;104270;-78
2023/01/20 02:37:06;;;;;;;16.60;4.77;;;;;;;9.64;82.03;99885.67;124583;1102;104280;-77
2023/01/20 02:39:47;;;;;;;18.10;4.83;;;;;;;9.66;82.15;99884.88;124602;1099;101839;-77
2023/01/20 02:42:26;;;;;;;14.30;4.57;;;;;;;9.67;81.93;99891.00;124716;1102;104217;-78
2023/01/20 02:45:02;;;;;;;15.50;4.73;;;;;;;9.64;82.56;99889.16;124661;1102;104102;-78
2023/01/20 02:47:38;;;;;;;20.20;4.80;;;;;;;9.66;82.18;99882.27;124622;1102;104278;-77
2023/01/20 02:50:13;;;;;;;19.43;5.13;;;;;;;9.66;82.25;99881.35;124640;1102;104226;-78
2023/01/20 02:52:50;;;;;;;16.83;5.07;;;;;;;9.59;81.99;99875.05;124579;1102;104261;-77
2023/01/20 02:55:26;;;;;;;20.63;5.90;;;;;;;9.52;82.56;99878.32;124689;1105;104210;-77
2023/01/20 02:58:02;;;;;;;15.90;5.00;;;;;;;9.46;82.68;99865.07;124626;1102;102600;-77
2023/01/20 03:00:37;;;;;;;21.43;5.67;;;;;;;9.40;82.55;99870.13;124741;1101;104217;-77
2023/01/20 03:03:13;;;;;;;17.37;5.30;;;;;;;9.38;82.08;99874.41;124659;1102;104210;-78
2023/01/20 03:05:51;;;;;;;20.33;5.87;;;;;;;9.39;82.27;99865.72;124665;1102;101981;-77
2023/01/20 03:08:24;;;;;;;19.83;5.30;;;;;;;9.38;82.27;99856.98;124642;1102;104175;-77
2023/01/20 03:10:58;;;;;;;19.03;5.90;;;;;;;9.34;82.46;99869.08;124601;1103;102313;-77
2023/01/20 03:13:36;;;;;;;18.13;6.03;;;;;;;9.34;83.00;99879.55;124523;1102;104254;-77
2023/01/20 03:16:11;;;;;;;20.13;6.27;;;;;;;9.36;82.94;99879.59;124597;1102;101832;-77
2023/01/20 03:18:43;;;;;;;18.63;5.80;;;;;;;9.31;82.75;99875.95;124610;1101;103254;-77
2023/01/20 03:21:15;;;;;;;23.47;5.70;;;;;;;9.24;82.53;99872.27;124692;1102;102192;-77
2023/01/20 03:23:50;;;;;;;23.90;6.07;;;;;;;9.20;82.32;99877.36;124668;1102;104239;-77
2023/01/20 03:26:23;;;;;;;23.43;6.47;;;;;;;9.15;82.95;99874.60;124671;1102;104277;-78
2023/01/20 03:28:55;;;;;;;22.35;6.20;;;;;;;9.17;82.47;99868.55;124582;1102;104258;-77
2023/01/20 03:31:29;;;;;;;15.85;6.05;;;;;;;9.15;82.31;99856.28;124534;1102;104233;-77
2023/01/20 03:34:03;;;;;;;18.37;5.70;;;;;;;9.09;83.22;99859.58;124559;1105;104294;-77
2023/01/20 03:36:34;;;;;;;;;;;;;;;9.04;82.96;99857.64;124469;1101;102108;-77
2023/01/20 03:39:06;;;;;;;24.47;6.77;;;;;;;8.98;83.16;99854.00;124656;1102;104089;-78
2023/01/20 03:41:51;;;;;;;22.97;7.43;;;;;;;8.96;82.80;99868.78;124790;1102;101875;-77
2023/01/20 03:44:22;;;;;;;;;;;;;;;8.95;83.68;99868.73;124767;1101;104254;-78
2023/01/20 03:46:58;;;;;;;25.17;9.77;;;;;;;8.94;83.15;99866.94;124900;1102;104211;-78
2023/01/20 03:49:35;;;;;;;26.30;8.97;;;;;;;8.97;82.88;99865.30;124750;1102;101973;-77
2023/01/20 03:52:15;;;;;;;26.63;8.10;;;;;;;8.98;82.89;99874.94;124763;1102;104229;-77
2023/01/20 03:54:52;;;;;;;28.10;8.00;;;;;;;8.99;83.42;99862.73;124630;1102;104313;-77
2023/01/20 03:57:27;;;;;;;19.43;6.77;;;;;;;8.99;83.25;99863.64;124957;1102;104313;-77
2023/01/20 04:00:00;;;;;;;23.47;7.30;;;;;;;9.02;83.54;99869.80;124668;1102;104185;-77
2023/01/20 04:02:35;;;;;;;31.43;7.00;;;;;;;9.03;83.76;99867.23;124639;1102;104035;-77
2023/01/20 04:05:10;;;;;;;18.27;6.53;;;;;;;9.05;83.58;99868.16;124507;1102;104179;-77
2023/01/20 04:07:44;;;;;;;21.77;6.73;;;;;;;9.06;83.64;99866.45;124754;1102;104192;-77
2023/01/20 04:10:17;;;;;;;24.65;6.53;;;;;;;9.06;83.83;99869.95;124634;1101;102691;-77
2023/01/20 04:12:48;;;;;;;24.45;7.00;;;;;;;9.06;83.67;99866.45;124778;1102;102094;-78
2023/01/20 04:15:22;;;;;;;17.93;6.27;;;;;;;9.07;83.82;99865.59;124561;1102;101906;-77
2023/01/20 04:17:53;;;;;;;18.23;6.03;;;;;;;9.08;83.41;99864.77;124687;1102;104246;-77
2023/01/20 04:20:26;;;;;;;19.17;6.10;;;;;;;9.08;83.68;99862.15;124497;1102;104208;-78
2023/01/20 04:22:59;;;;;;;19.90;6.37;;;;;;;9.12;84.13;99861.41;124671;1102;104201;-77
2023/01/20 04:25:31;;;;;;;17.15;6.05;;;;;;;9.13;83.42;99858.84;124601;1102;102467;-77
2023/01/20 04:28:03;;;;;;;22.40;6.90;;;;;;;9.14;83.84;99857.11;124582;1102;104415;-77
2023/01/20 04:30:34;;;;;;;22.65;6.55;;;;;;;9.15;83.63;99866.75;124566;1102;104223;-77
2023/01/20 04:33:05;;;;;;;20.27;6.60;;;;;;;9.15;83.87;99874.60;124777;1102;101881;-78
2023/01/20 04:35:36;;;;;;;19.60;6.60;;;;;;;9.15;83.91;99871.98;124665;1102;104255;-78
2023/01/20 04:38:08;;;;;;;23.67;7.13;;;;;;;9.16;84.18;99876.36;124747;1102;101986;-77
2023/01/20 04:40:39;;;;;;;20.40;6.20;;;;;;;9.15;83.66;99883.33;124657;1102;102221;-78
2023/01/20 04:43:11;;;;;;;20.97;6.70;;;;;;;9.16;84.26;99889.44;124569;1102;104287;-79
2023/01/20 04:45:43;;;;;;;18.23;6.07;;;;;;;9.16;84.48;99892.97;124689;1102;104332;-77
2023/01/20 04:48:15;;;;;;;20.57;6.10;;;;;;;9.18;84.61;99895.64;124904;1101;104300;-78
2023/01/20 04:50:46;;;;;;;16.10;5.57;;;;;;;9.18;84.56;99893.90;124625;1102;102290;-77
2023/01/20 04:53:18;;;;;;;19.10;6.20;;;;;;;9.21;84.34;99895.73;124723;1102;102234;-78
2023/01/20 04:55:49;;;;;;;20.77;5.40;;;;;;;9.22;84.46;99889.64;124718;1102;104251;-77
2023/01/20 04:58:20;;;;;;;20.70;5.83;;;;;;;9.22;84.20;99892.25;124730;1102;104169;-77
2023/01/20 05:00:51;;;;;;;17.80;6.07;;;;;;;9.25;84.35;99902.83;124614;1102;104277;-77
2023/01/20 05:03:23;;;;;;;24.70;7.00;;;;;;;9.27;84.74;99897.63;124592;1102;102400;-77
2023/01/20 05:05:57;;;;;;;20.10;6.80;;;;;;;9.28;84.65;99896.80;124596;1102;103282;-77
2023/01/20 05:08:31;;;;;;;20.30;7.10;;;;;;;9.29;84.83;99891.62;124598;1102;102128;-78
2023/01/20 05:11:02;;;;;;;15.67;5.57;;;;;;;9.28;84.37;99895.06;124612;1102;104289;-78
2023/01/20 05:13:37;;;;;;;20.90;6.50;;;;;;;9.28;84.28;99894.19;124742;1102;104179;-78
2023/01/20 05:16:10;;;;;;;19.80;6.27;;;;;;;9.27;84.95;99900.25;124687;1102;101922;-78
2023/01/20 05:18:41;;;;;;;21.57;6.43;;;;;;;9.28;85.01;99897.69;124777;1102;104236;-78
2023/01/20 05:21:12;;;;;;;19.10;6.43;;;;;;;9.29;84.41;99889.00;124612;1102;102339;-78
2023/01/20 05:23:44;;;;;;;18.30;6.00;;;;;;;9.31;84.41;99896.90;124735;1102;101811;-77
2023/01/20 05:26:15;;;;;;;19.57;6.37;;;;;;;9.32;84.43;99896.95;124648;1102;104233;-78
2023/01/20 05:28:47;;;;;;;17.67;6.73;;;;;;;9.33;85.04;99883.03;124630;1102;104248;-78
2023/01/20 05:31:18;;;;;;;17.85;5.95;;;;;;;9.34;84.53;99887.41;124668;1102;104364;-76
2023/01/20 05:33:50;;;;;;;18.30;6.40;;;;;;;9.37;85.15;99886.63;124677;1102;104207;-77
2023/01/20 05:36:21;;;;;;;17.27;6.87;;;;;;;9.38;85.07;99887.50;124621;1102;102042;-79
2023/01/20 05:38:52;;;;;;;17.60;6.80;;;;;;;9.39;84.56;99894.52;124589;1102;104240;-78
2023/01/20 05:41:24;;;;;;;17.77;6.67;;;;;;;9.41;84.96;99900.69;124706;1102;104183;-78
2023/01/20 05:43:56;;;;;;;20.50;7.17;;;;;;;9.39;85.02;99891.91;124618;1102;104353;-77
2023/01/20 05:46:27;;;;;;;15.30;6.30;;;;;;;9.39;85.21;99895.40;124568;1102;104073;-80
2023/01/20 05:48:59;;;;;;;16.57;6.43;;;;;;;9.39;85.16;99889.28;124703;1103;104083;-77
2023/01/20 05:51:30;;;;;;;19.27;6.47;;;;;;;9.38;84.67;99896.27;124573;1102;104176;-77
2023/01/20 05:54:02;;;;;;;21.00;6.87;;;;;;;9.36;85.25;99890.06;124555;1102;104203;-80
2023/01/20 05:56:33;;;;;;;18.53;7.27;;;;;;;9.38;84.92;99890.11;124579;1103;103209;-78
2023/01/20 05:59:06;;;;;;;21.63;7.30;;;;;;;9.41;85.04;99887.59;124599;1103;104284;-77
2023/01/20 06:01:39;;;;;;;18.43;7.07;;;;;;;9.42;84.95;99887.64;124558;1102;104280;-77
2023/01/20 06:04:11;;;;;;;17.50;7.10;;;;;;;9.43;84.86;99878.95;124518;1105;102025;-76
2023/01/20 06:06:42;;;;;;;24.60;7.63;;;;;;;9.46;85.62;99872.93;124671;1102;104326;-77
2023/01/20 06:09:13;;;;;;;17.97;6.90;;;;;;;9.49;85.19;99887.00;124569;1102;104179;-78
2023/01/20 06:11:45;;;;;;;20.37;7.27;;;;;;;9.53;85.78;99893.20;124688;1101;101832;-81
2023/01/20 06:14:16;;;;;;;21.00;7.67;;;;;;;9.53;85.84;99898.44;124633;1105;104181;-77
2023/01/20 06:16:47;;;;;;;17.30;7.20;;;;;;;9.56;85.78;99895.04;124714;1105;104206;-77
2023/01/20 06:19:34;;;;;;;20.83;7.80;;;;;;;9.57;85.21;99902.03;124721;1102;102258;-77
2023/01/20 06:22:07;;;;;;;19.33;8.20;;;;;;;9.57;85.76;99916.04;124568;1102;102765;-77
2023/01/20 06:24:38;;;;;;;21.47;7.80;;;;;;;9.57;85.15;99907.27;124553;1102;102779;-76
2023/01/20 06:27:11;;;;;;;22.60;7.97;;;;;;;9.59;85.17;99897.75;124585;1102;102941;-76
2023/01/20 06:29:42;;;;;;;15.37;7.23;;;;;;;9.61;85.39;99902.17;124588;1102;102100;-76
2023/01/20 06:32:14;;;;;;;18.70;7.80;;;;;;;9.66;85.22;99899.69;124750;1102;102671;-76
2023/01/20 06:34:48;;;;;;;20.37;7.77;;;;;;;9.75;85.30;99901.70;124695;1102;102146;-76
2023/01/20 06:37:18;;;;;;;;;;;;;;;9.84;85.39;99905.47;124576;1102;102512;-76
2023/01/20 06:39:49;;;;;;;22.03;7.93;;;;;;;9.93;85.79;99919.71;124848;1102;103465;-75
2023/01/20 06:42:21;;;;;;;16.27;7.40;;;;;;;9.98;85.38;99933.83;124745;1102;104220;-76
2023/01/20 06:44:53;;;;;;;21.03;8.67;;;;;;;10.02;86.01;99936.58;124639;1102;103723;-76
2023/01/20 06:47:27;;;;;;;23.47;7.80;;;;;;;10.07;85.94;99937.59;124771;1102;102442;-76
2023/01/20 06:49:59;;;;;;;19.90;8.33;;;;;;;10.14;85.82;99929.91;124749;1103;103042;-76
2023/01/20 06:52:36;;;;;;;21.97;8.30;;;;;;;10.22;85.84;99928.38;124603;1102;103049;-75
2023/01/20 06:55:08;;;;;;;20.60;8.03;;;;;;;10.28;85.82;99922.42;124471;1105;102757;-75
2023/01/20 06:57:43;;;;;;;20.83;8.37;;;;;;;10.32;85.81;99919.05;124615;1102;102721;-76
2023/01/20 07:00:27;;;;;;;17.30;7.35;;;;;;;10.36;85.49;99919.21;124623;1102;104195;-76
2023/01/20 07:03:08;;;;;;;22.17;8.30;;;;;;;10.41;85.09;99919.34;124576;1105;104174;-77
2023/01/20 07:05:45;;;;;;;21.07;8.37;;;;;;;10.46;85.80;99922.09;124779;1102;104397;-77
2023/01/20 07:08:22;;;;;;;19.60;8.13;;;;;;;10.50;85.71;99913.42;124821;1102;102818;-78
2023/01/20 07:10:56;;;;;;;17.05;8.50;;;;;;;10.53;85.56;99908.27;124881;1102;104248;-77
2023/01/20 07:13:30;;;;;;;19.75;8.58;;;;;;;10.56;85.22;99910.97;124492;1102;102613;-77
2023/01/20 07:16:04;;;;;;;19.30;8.57;;;;;;;10.60;85.23;99908.47;124532;1105;102519;-77
2023/01/20 07:18:44;;;;;;;;;;;;;;;10.68;85.41;99928.78;124589;1103;104258;-78
2023/01/20 07:21:37;;;;;;;23.85;9.85;;;;;;;10.71;85.43;99919.23;124589;1102;104297;-78
2023/01/20 07:24:19;;;;;;;27.93;9.97;;;;;;;10.74;85.20;99923.69;124856;1102;102623;-77
2023/01/20 07:26:56;;;;;;;25.87;9.17;;;;;;;10.80;85.38;99931.72;124653;1105;103452;-78
2023/01/20 07:29:30;;;;;;;21.57;9.17;;;;;;;10.87;85.12;99933.63;124913;1102;104214;-77
2023/01/20 07:32:05;;;;;;;23.67;9.10;;;;;;;10.96;85.26;99927.74;124451;1102;102156;-78
2023/01/20 07:34:49;;;;;;;26.00;9.10;;;;;;;11.06;85.15;99934.09;124535;1102;102545;-77
2023/01/20 07:37:30;;;;;;;23.57;9.53;;;;;;;11.19;85.09;99928.30;124715;1102;102688;-77
2023/01/20 07:40:21;;;;;;;;;;;;;;;11.27;84.19;99932.00;124811;1102;102440;-77
2023/01/20 07:43:01;;;;;;;25.27;9.30;;;;;;;11.38;84.54;99927.00;124807;1102;102828;-77
2023/01/20 07:45:51;;;;;;;20.40;9.13;;;;;;;11.49;84.36;99928.12;124631;1102;102858;-76
2023/01/20 07:48:30;;;;;;;19.73;8.83;;;;;;;11.62;84.16;99926.64;124884;1103;102822;-77
2023/01/20 07:51:05;;;;;;;21.40;8.87;;;;;;;11.73;83.58;99940.03;124827;1102;102345;-76
2023/01/20 07:53:45;;;;;;;20.50;9.23;;;;;;;11.84;83.96;99938.55;125087;1102;104307;-79
2023/01/20 07:56:26;;;;;;;21.00;8.27;;;;;;;11.99;84.20;99927.48;125453;1102;104179;-78
2023/01/20 07:59:02;;;;;;;20.87;8.73;;;;;;;12.10;83.50;99925.07;125498;1102;102340;-78
2023/01/20 08:01:34;;;;;;;23.17;9.20;;;;;;;12.15;82.89;99925.16;124725;1106;104262;-77
2023/01/20 08:04:06;;;;;;;21.43;9.00;;;;;;;12.23;83.32;99936.72;124764;1102;103232;-77
2023/01/20 08:06:46;;;;;;;20.90;8.73;;;;;;;12.34;82.93;99921.14;124723;1102;104191;-77
2023/01/20 08:09:20;;;;;;;18.63;8.80;;;;;;;12.42;83.39;99932.72;126211;1101;102415;-77
2023/01/20 08:11:56;;;;;;;20.37;8.67;;;;;;;12.50;83.67;99940.77;125745;1102;103234;-79
2023/01/20 08:14:52;;;;;;;19.07;9.30;;;;;;;12.55;83.06;99939.97;126194;1101;102109;-77
2023/01/20 08:17:37;;;;;;;20.20;8.80;;;;;;;12.54;82.29;99939.95;126008;1101;102488;-79
2023/01/20 08:20:18;;;;;;;19.00;8.40;;;;;;;12.57;82.48;99954.07;125912;1102;101796;-79
2023/01/20 08:23:00;;;;;;;17.20;8.30;;;;;;;12.67;82.35;99952.48;125907;1101;102238;-78
2023/01/20 08:25:34;;;;;;;20.33;8.70;;;;;;;12.80;82.59;99943.05;124803;1102;104351;-78
2023/01/20 08:28:06;;;;;;;18.93;8.73;;;;;;;12.92;82.57;99953.80;125069;1102;102064;-77
2023/01/20 08:30:42;;;;;;;19.23;8.50;;;;;;;12.92;81.48;99943.27;124970;1102;104252;-79
2023/01/20 08:33:19;;;;;;;20.23;8.03;;;;;;;12.96;82.18;99941.56;124642;1102;102110;-78
2023/01/20 08:35:51;;;;;;;18.27;8.03;;;;;;;13.03;81.78;99953.12;125432;1102;102202;-79
2023/01/20 08:38:34;;;;;;;21.37;9.10;;;;;;;13.06;81.29;99954.05;124805;1102;102878;-78
2023/01/20 08:41:17;;;;;;;20.77;8.20;;;;;;;13.14;81.97;99954.17;124778;1102;102711;-78
2023/01/20 08:43:53;;;;;;;19.80;8.93;;;;;;;13.20;81.80;99956.00;124901;1103;104227;-77
2023/01/20 08:46:36;;;;;;;19.83;9.03;;;;;;;13.22;81.64;99965.71;124760;1102;107054;-78
2023/01/20 08:49:10;;;;;;;18.37;8.17;;;;;;;13.28;81.64;99960.55;124997;1102;103120;-78
2023/01/20 08:51:44;;;;;;;20.43;9.13;;;;;;;13.33;80.76;99954.47;125116;1102;104220;-77
2023/01/20 08:54:18;;;;;;;22.27;8.67;;;;;;;13.37;81.28;99962.48;124801;1102;103469;-77
2023/01/20 08:56:53;;;;;;;21.03;8.93;;;;;;;13.42;80.81;99949.38;124806;1102;103087;-78
2023/01/20 08:59:25;;;;;;;17.98;8.68;;;;;;;13.52;80.95;99940.73;116183;1102;10001251;-77
2023/01/20 09:01:57;;;;;;;17.00;7.90;;;;;;;13.63;80.76;99933.89;124824;1102;104232;-78
2023/01/20 09:04:37;;;;;;;18.50;8.00;;;;;;;13.66;79.85;99939.20;124701;1102;104204;-77
2023/01/20 09:07:16;;;;;;;20.87;8.20;;;;;;;13.66;79.15;99933.93;124879;1102;104229;-78
2023/01/20 09:09:50;;;;;;;17.77;7.83;;;;;;;13.66;80.09;99930.39;125104;1102;103664;-77
2023/01/20 09:12:31;;;;;;;18.67;8.00;;;;;;;13.70;80.30;99928.66;124788;1102;102770;-77
2023/01/20 09:15:06;;;;;;;17.33;8.30;;;;;;;13.76;79.29;99928.75;124748;1102;102994;-77
2023/01/20 09:17:40;;;;;;;20.40;8.77;;;;;;;13.83;80.01;99926.22;124806;1105;102451;-77
2023/01/20 09:20:14;;;;;;;20.48;8.58;;;;;;;13.87;79.44;99913.98;124749;1105;102989;-77
2023/01/20 09:22:52;;;;;;;20.03;8.47;;;;;;;13.93;78.59;99919.34;117333;1101;10001477;-77
2023/01/20 09:25:24;;;;;;;18.00;8.37;;;;;;;13.98;79.07;99928.19;125922;1101;104303;-75
2023/01/20 09:28:04;;;;;;;18.77;8.47;;;;;;;14.00;78.43;99931.72;124896;1106;103145;-78
2023/01/20 09:30:46;;;;;;;17.50;8.17;;;;;;;14.00;78.27;99922.93;124908;1102;104239;-77
2023/01/20 09:33:31;;;;;;;20.40;8.73;;;;;;;14.05;78.32;99920.34;124932;1102;104131;-77
2023/01/20 09:45:43;;;;;;;17.20;7.87;;;;;;;14.43;77.87;99912.88;124916;1102;102157;-77
2023/01/20 09:54:26;;;;;;;19.10;8.07;;;;;;;14.54;77.04;99913.86;125048;1102;104574;-78
2023/01/20 09:57:17;;;;;;;17.10;7.37;;;;;;;14.60;76.59;99915.73;124879;1102;104261;-78
2023/01/20 10:00:08;;;;;;;21.13;7.60;;;;;;;14.70;77.85;99904.36;124798;1102;102443;-78
2023/01/20 10:02:54;;;;;;;18.30;7.60;;;;;;;14.83;77.63;99907.99;124721;1106;103999;-79
2023/01/20 10:05:38;;;;;;;19.33;7.20;;;;;;;14.94;76.90;99899.28;124792;1102;104191;-76
2023/01/20 10:08:14;;;;;;;15.93;7.33;;;;;;;15.02;76.39;99913.44;125105;1102;117845;-77
2023/01/20 10:10:52;;;;;;;19.10;7.30;;;;;;;15.08;75.66;99903.83;124728;1102;104243;-78
2023/01/20 10:13:29;;;;;;;16.80;7.40;;;;;;;15.10;76.58;99899.42;125169;1102;104239;-78
2023/01/20 10:16:11;;;;;;;15.83;7.17;;;;;;;15.08;75.57;99890.61;124878;1102;102906;-77
2023/01/20 10:18:55;;;;;;;19.60;8.10;;;;;;;15.07;74.59;99893.24;124806;1105;103263;-78
2023/01/20 10:21:37;;;;;;;16.63;7.80;;;;;;;15.09;74.84;99895.00;124821;1102;103762;-76
2023/01/20 10:24:18;;;;;;;18.13;8.17;;;;;;;15.12;75.86;99890.64;124666;1105;102475;-77
2023/01/20 10:26:55;;;;;;;19.50;8.00;;;;;;;15.16;75.31;99888.03;124611;1102;104067;-76
2023/01/20 10:29:34;;;;;;;17.70;8.07;;;;;;;15.17;75.06;99887.13;124751;1102;104172;-78
2023/01/20 10:32:22;;;;;;;17.53;8.13;;;;;;;15.16;75.14;99879.20;125046;1102;104660;-77
2023/01/20 10:34:59;;;;;;;18.37;7.83;;;;;;;15.15;75.53;99877.45;125103;1102;103194;-78
2023/01/20 10:37:33;;;;;;;19.47;8.27;;;;;;;15.12;74.12;99875.66;124921;1101;102543;-78
2023/01/20 10:40:22;;;;;;;19.17;7.43;;;;;;;15.07;74.20;99875.62;124922;1102;102411;-79
2023/01/20 10:42:57;;;;;;;18.53;7.40;;;;;;;15.00;73.72;99879.08;124834;1102;103187;-76
2023/01/20 10:45:39;;;;;;;18.60;7.87;;;;;;;14.92;74.77;99881.66;124978;1102;102861;-77
2023/01/20 10:48:29;;;;;;;16.57;7.40;;;;;;;14.87;74.87;99875.46;124976;1103;104086;-77
2023/01/20 10:51:10;;;;;;;15.37;6.97;;;;;;;14.82;73.99;99871.91;125012;1102;104185;-77
2023/01/20 10:57:45;;;;;;;14.67;6.80;;;;;;;14.85;74.10;99861.38;125230;1102;104168;-79
2023/01/20 11:00:35;;;;;;;23.17;7.37;;;;;;;14.93;73.32;99853.50;125009;1102;102760;-78
2023/01/20 11:03:15;;;;;;;15.93;7.30;;;;;;;15.00;73.85;99852.66;125558;1102;102503;-77
2023/01/20 11:05:50;;;;;;;17.30;8.00;;;;;;;15.03;72.77;99847.40;125549;1102;102847;-78
2023/01/20 11:08:24;;;;;;;19.80;7.50;;;;;;;15.07;72.74;99843.91;125299;1102;103563;-78
2023/01/20 11:11:00;;;;;;;15.83;7.93;;;;;;;15.07;72.44;99833.34;125231;1102;102360;-79
2023/01/20 11:13:32;;;;;;;21.43;8.20;;;;;;;15.18;72.82;99838.70;125050;1102;102167;-77
2023/01/20 11:16:11;;;;;;;17.02;7.75;;;;;;;15.25;73.09;99840.52;116497;1102;10001686;-77
2023/01/20 11:18:54;;;;;;;13.53;6.83;;;;;;;15.30;72.25;99839.64;124959;1102;102178;-76
2023/01/20 11:21:28;;;;;;;18.00;7.90;;;;;;;15.27;71.01;99832.60;116391;1102;10001728;-78
2023/01/20 11:24:00;;;;;;;15.57;7.37;;;;;;;15.24;71.21;99827.30;125038;1102;104207;-79
2023/01/20 11:26:36;;;;;;;14.70;7.03;;;;;;;15.21;72.18;99833.44;124961;1102;103355;-78
2023/01/20 11:29:29;;;;;;;16.83;7.23;;;;;;;15.19;72.12;99836.93;124839;1102;102451;-77
2023/01/20 11:32:01;;;;;;;17.93;7.30;;;;;;;15.23;71.89;99829.03;125270;1102;102886;-78
2023/01/20 11:34:34;;;;;;;22.03;7.97;;;;;;;15.26;71.93;99823.77;125173;1102;104297;-77
2023/01/20 11:37:24;;;;;;;19.13;7.70;;;;;;;15.28;72.16;99816.72;124931;1103;102828;-77
2023/01/20 11:40:19;;;;;;;18.27;7.70;;;;;;;15.27;71.75;99814.10;124916;1102;104192;-78
2023/01/20 11:42:55;;;;;;;17.33;7.33;;;;;;;15.24;72.04;99822.02;124830;1102;104242;-78
2023/01/20 11:45:37;;;;;;;20.17;8.00;;;;;;;15.18;71.58;99827.26;124945;1105;102181;-78
2023/01/20 11:48:20;;;;;;;19.07;7.37;;;;;;;15.14;71.81;99825.46;125026;1102;103725;-78
2023/01/20 11:50:57;;;;;;;20.60;8.10;;;;;;;15.11;71.95;99834.23;125152;1102;103271;-78
2023/01/20 11:53:44;;;;;;;18.67;7.57;;;;;;;15.10;71.58;99820.16;125100;1102;104201;-77
2023/01/20 11:56:23;;;;;;;16.73;7.27;;;;;;;15.08;71.87;99824.55;124972;1101;103047;-79
2023/01/20 11:59:04;;;;;;;14.17;6.70;;;;;;;15.07;71.86;99829.83;124971;1102;102794;-80
2023/01/20 12:01:56;;;;;;;18.47;7.27;;;;;;;15.05;71.66;99837.75;124840;1105;102055;-79
2023/01/20 12:05:00;;;;;;;18.17;6.60;;;;;;;15.04;70.94;99824.53;124985;1105;103226;-78
2023/01/20 12:07:41;;;;;;;17.53;7.73;;;;;;;15.02;72.08;99818.33;124741;1102;104121;-77
2023/01/20 12:10:27;;;;;;;17.23;6.80;;;;;;;15.02;71.54;99821.88;124714;1102;102383;-78
2023/01/20 12:13:11;;;;;;;19.40;7.30;;;;;;;15.03;71.79;99814.81;125083;1102;104258;-78